Time;durP1;ratioP1;P1;durP2;ratioP2;P2;SDS_P1;SDS_P2;PMS_P1;PMS_P2;Temp;Humidity;BMP_temperature;BMP_pressure;BME280_temperature;BME280_humidity;BME280_pressure;Samples;Min_cycle;Max_cycle;Signal;HPM_P1;HPM_P2
2023/07/24 00:00:26;;;;;;;0.50;0.20;;;;;;;20.83;76.91;99400.59;4990553;28;20576;-52
2023/07/24 00:02:53;;;;;;;0.50;0.20;;;;;;;20.81;76.83;99392.63;4980971;28;20485;-52
2023/07/24 00:05:20;;;;;;;0.50;0.20;;;;;;;20.97;76.55;99401.16;4995022;28;20461;-52
2023/07/24 00:07:46;;;;;;;0.50;0.20;;;;;;;21.00;76.16;99391.91;4995650;28;20545;-52
2023/07/24 00:10:13;;;;;;;0.50;0.20;;;;;;;20.90;76.38;99382.88;4995904;28;20445;-52
2023/07/24 00:12:39;;;;;;;0.50;0.20;;;;;;;20.93;76.33;99385.31;4995689;28;20479;-52
2023/07/24 00:15:07;;;;;;;0.50;0.20;;;;;;;20.91;76.51;99388.16;4995667;28;20548;-52
2023/07/24 00:17:33;;;;;;;0.50;0.20;;;;;;;20.91;76.69;99388.16;4995564;28;20485;-52
2023/07/24 00:20:00;;;;;;;0.50;0.20;;;;;;;20.86;77.31;99390.41;4995430;28;20862;-52
2023/07/24 00:22:26;;;;;;;0.50;0.20;;;;;;;20.88;77.50;99384.88;4995287;28;20561;-52
2023/07/24 00:24:52;;;;;;;0.50;0.20;;;;;;;20.91;76.75;99379.19;4995462;28;20477;-52
2023/07/24 00:27:19;;;;;;;0.50;0.20;;;;;;;20.85;77.51;99377.03;4996047;28;20449;-52
2023/07/24 00:29:45;;;;;;;0.50;0.20;;;;;;;20.82;77.83;99374.56;4995300;28;20533;-52
2023/07/24 00:32:12;;;;;;;0.50;0.20;;;;;;;20.76;77.81;99367.84;4982571;28;20513;-52
2023/07/24 00:34:38;;;;;;;0.50;0.20;;;;;;;20.86;77.86;99376.91;4988785;28;20462;-52
2023/07/24 00:37:05;;;;;;;0.50;0.20;;;;;;;20.74;77.93;99382.47;4988908;28;20484;-52
2023/07/24 00:39:31;;;;;;;0.50;0.20;;;;;;;20.67;78.41;99382.13;4995217;28;20537;-52
2023/07/24 00:41:58;;;;;;;0.50;0.20;;;;;;;20.77;78.20;99374.13;4994926;28;20552;-52
2023/07/24 00:44:24;;;;;;;0.50;0.20;;;;;;;20.71;78.95;99383.59;4975945;28;20497;-52
2023/07/24 00:46:51;;;;;;;0.50;0.40;;;;;;;20.74;78.38;99377.94;4988458;28;21005;-52
2023/07/24 00:49:17;;;;;;;0.50;0.20;;;;;;;20.47;80.18;99372.16;4994840;28;20456;-52
2023/07/24 00:51:45;;;;;;;0.50;0.20;;;;;;;20.44;80.18;99373.28;4994697;28;20504;-52
2023/07/24 00:54:14;;;;;;;0.50;0.20;;;;;;;20.19;81.39;99377.16;5001944;28;20503;-52
2023/07/24 00:56:41;;;;;;;0.87;0.77;;;;;;;20.28;81.28;99367.41;4987206;28;20831;-52
2023/07/24 00:59:08;;;;;;;0.50;0.20;;;;;;;20.16;81.51;99363.91;4994881;28;20536;-51
2023/07/24 01:01:35;;;;;;;0.50;0.20;;;;;;;19.96;82.40;99365.53;4984573;28;20576;-52
2023/07/24 01:04:03;;;;;;;0.50;0.20;;;;;;;20.10;82.15;99354.47;4982814;28;21026;-52
2023/07/24 01:06:29;;;;;;;0.50;0.20;;;;;;;20.17;82.18;99351.28;4994736;28;20485;-52
2023/07/24 01:08:56;;;;;;;0.50;0.20;;;;;;;20.20;81.98;99338.38;4994759;28;20557;-52
2023/07/24 01:11:36;;;;;;;0.50;0.20;;;;;;;20.09;82.23;99330.31;4994286;28;20847;-52
2023/07/24 01:14:12;;;;;;;0.50;0.20;;;;;;;20.19;81.57;99339.38;4994659;28;20450;-51
2023/07/24 01:16:41;;;;;;;0.50;0.20;;;;;;;20.15;82.07;99335.22;4994351;28;20453;-51
2023/07/24 01:19:23;;;;;;;0.50;0.20;;;;;;;20.07;82.30;99340.38;4994602;28;20463;-51
2023/07/24 01:22:08;;;;;;;0.50;0.20;;;;;;;20.15;82.06;99340.63;4994308;28;20553;-51
2023/07/24 01:24:46;;;;;;;0.50;0.20;;;;;;;20.23;81.79;99348.91;4994234;28;20994;-50
2023/07/24 01:27:20;;;;;;;0.60;0.37;;;;;;;20.24;81.74;99347.06;4994539;28;20540;-52
2023/07/24 01:29:46;;;;;;;0.50;0.20;;;;;;;20.19;82.09;99346.59;4994375;28;20477;-51
2023/07/24 01:32:13;;;;;;;0.50;0.20;;;;;;;20.15;82.68;99337.03;4982210;28;20565;-51
2023/07/24 01:34:39;;;;;;;0.50;0.20;;;;;;;19.82;83.41;99317.25;4993139;28;20458;-51
2023/07/24 01:37:06;;;;;;;0.50;0.20;;;;;;;19.91;83.00;99304.88;4994072;28;20457;-52
2023/07/24 01:39:34;;;;;;;0.50;0.20;;;;;;;19.94;82.79;99300.06;4993927;28;21027;-51
2023/07/24 01:42:02;;;;;;;0.50;0.20;;;;;;;19.92;82.70;99296.66;4993654;28;20572;-51
2023/07/24 01:44:28;;;;;;;0.50;0.20;;;;;;;19.74;82.96;99280.16;4994006;28;20454;-51
2023/07/24 01:46:55;;;;;;;0.50;0.20;;;;;;;19.88;83.03;99261.97;4994271;28;20481;-51
2023/07/24 01:49:21;;;;;;;0.50;0.30;;;;;;;19.88;82.73;99268.22;4993824;28;20489;-51
2023/07/24 01:51:48;;;;;;;0.50;0.20;;;;;;;19.94;82.37;99258.75;4993637;28;20557;-52
2023/07/24 01:54:14;;;;;;;0.50;0.20;;;;;;;19.91;82.21;99254.47;4996907;28;20947;-51
2023/07/24 01:56:41;;;;;;;0.50;0.20;;;;;;;20.07;81.67;99256.72;4980739;28;20456;-52
2023/07/24 01:59:07;;;;;;;0.50;0.20;;;;;;;20.22;80.95;99257.28;4993826;28;20545;-51
2023/07/24 02:01:33;;;;;;;0.50;0.20;;;;;;;20.24;80.92;99264.25;4983902;28;20572;-52
2023/07/24 02:04:00;;;;;;;0.50;0.20;;;;;;;20.25;80.99;99268.66;4981562;28;20511;-51
2023/07/24 02:06:27;;;;;;;0.50;0.20;;;;;;;20.18;81.60;99275.59;4993336;28;20457;-51
2023/07/24 02:08:53;;;;;;;0.50;0.20;;;;;;;20.11;82.06;99271.66;4993706;28;20480;-51
2023/07/24 02:11:20;;;;;;;0.50;0.20;;;;;;;20.16;82.03;99279.41;4993447;28;20497;-51
2023/07/24 02:13:47;;;;;;;1.33;1.27;;;;;;;20.06;82.67;99287.41;4993364;28;20879;-51
2023/07/24 02:16:13;;;;;;;0.50;0.20;;;;;;;19.91;83.32;99283.28;4993398;28;20547;-51
2023/07/24 02:18:42;;;;;;;0.50;0.20;;;;;;;19.87;83.37;99282.66;4993409;28;20550;-51
2023/07/24 02:21:09;;;;;;;0.50;0.20;;;;;;;19.60;83.90;99279.56;4992510;28;20536;-51
2023/07/24 02:23:36;;;;;;;0.50;0.20;;;;;;;19.40;84.67;99281.16;4993155;28;20817;-51
2023/07/24 02:26:02;;;;;;;0.50;0.20;;;;;;;19.36;84.92;99288.66;4993363;28;20461;-51
2023/07/24 02:28:29;;;;;;;0.50;0.20;;;;;;;19.33;85.06;99299.69;4993274;28;20532;-51
2023/07/24 02:30:55;;;;;;;0.50;0.20;;;;;;;19.30;85.34;99305.28;4991494;28;20465;-52
2023/07/24 02:33:22;;;;;;;0.50;0.20;;;;;;;19.28;85.54;99303.72;4981809;28;20532;-51
2023/07/24 02:35:51;;;;;;;0.50;0.20;;;;;;;19.34;85.63;99305.94;4992844;28;20461;-51
2023/07/24 02:38:18;;;;;;;0.50;0.20;;;;;;;19.40;85.62;99308.97;4993294;28;20453;-52
2023/07/24 02:40:45;;;;;;;0.50;0.20;;;;;;;19.63;84.33;99312.53;4992644;28;20846;-51
2023/07/24 02:43:11;;;;;;;0.50;0.20;;;;;;;19.63;84.31;99311.69;4993494;28;20457;-53
2023/07/24 02:45:38;;;;;;;0.50;0.20;;;;;;;19.56;84.59;99311.31;4992725;28;20981;-53
2023/07/24 02:48:05;;;;;;;0.50;0.20;;;;;;;19.20;86.01;99299.81;4992754;28;20458;-52
2023/07/24 02:50:33;;;;;;;0.50;0.20;;;;;;;19.18;86.73;99293.66;4992767;28;20458;-53
2023/07/24 02:52:59;;;;;;;0.50;0.20;;;;;;;19.04;87.71;99276.88;4992890;28;21009;-53
2023/07/24 02:55:26;;;;;;;0.50;0.20;;;;;;;18.69;89.48;99261.69;5002327;28;20454;-52
2023/07/24 02:57:53;;;;;;;0.50;0.20;;;;;;;18.92;88.95;99266.13;4983837;28;20503;-53
2023/07/24 03:00:19;;;;;;;0.50;0.20;;;;;;;18.98;88.86;99280.94;4988376;28;20450;-53
2023/07/24 03:02:46;;;;;;;0.50;0.20;;;;;;;18.73;90.13;99283.84;4977255;28;20565;-53
2023/07/24 03:05:12;;;;;;;0.50;0.20;;;;;;;18.78;89.79;99271.75;4991128;28;20457;-53
2023/07/24 03:07:39;;;;;;;0.50;0.20;;;;;;;18.59;90.52;99258.81;4992739;28;20942;-53
2023/07/24 03:10:05;;;;;;;0.50;0.20;;;;;;;18.61;90.35;99245.25;4992784;28;20458;-53
2023/07/24 03:12:32;;;;;;;0.50;0.37;;;;;;;18.74;90.17;99242.47;4992718;28;20512;-52
2023/07/24 03:14:58;;;;;;;0.50;0.20;;;;;;;18.72;90.31;99236.34;4992669;28;20481;-52
2023/07/24 03:17:25;;;;;;;0.50;0.20;;;;;;;18.74;90.11;99229.00;4992658;28;20483;-52
2023/07/24 03:19:51;;;;;;;0.50;0.20;;;;;;;18.79;90.00;99226.84;4992822;28;20464;-52
2023/07/24 03:22:18;;;;;;;0.50;0.20;;;;;;;18.76;89.91;99224.34;4992519;28;21050;-53
2023/07/24 03:24:45;;;;;;;0.50;0.20;;;;;;;18.77;89.72;99231.44;4992629;28;20546;-52
2023/07/24 03:27:11;;;;;;;0.50;0.20;;;;;;;18.71;90.12;99210.41;4992849;28;20541;-53
2023/07/24 03:29:39;;;;;;;0.50;0.20;;;;;;;18.48;90.89;99188.81;4992460;28;20449;-52
2023/07/24 03:32:06;;;;;;;0.50;0.20;;;;;;;18.04;93.17;99177.00;4980418;28;21035;-52
2023/07/24 03:34:32;;;;;;;0.50;0.20;;;;;;;17.87;94.24;99164.00;4994045;28;20551;-52
2023/07/24 03:36:59;;;;;;;0.50;0.20;;;;;;;17.81;94.13;99160.91;4996400;28;20545;-52
2023/07/24 03:39:25;;;;;;;0.50;0.20;;;;;;;17.95;93.43;99155.34;4996362;28;20453;-52
2023/07/24 03:41:51;;;;;;;0.50;0.30;;;;;;;18.26;92.02;99170.84;4995913;28;20576;-52
2023/07/24 03:44:18;;;;;;;0.50;0.20;;;;;;;18.44;90.95;99179.28;4996055;28;20905;-53
2023/07/24 03:46:44;;;;;;;0.50;0.20;;;;;;;18.51;91.22;99187.75;4995965;28;20450;-53
2023/07/24 03:49:11;;;;;;;0.50;0.20;;;;;;;18.49;90.73;99179.78;4996144;28;20945;-53
2023/07/24 03:51:37;;;;;;;0.50;0.20;;;;;;;18.60;89.91;99190.56;4996151;28;20556;-53
2023/07/24 03:54:04;;;;;;;0.50;0.20;;;;;;;18.81;89.78;99193.41;5001722;28;20480;-53
2023/07/24 03:56:30;;;;;;;0.50;0.20;;;;;;;19.03;89.03;99195.22;4990533;28;20454;-53
2023/07/24 03:58:57;;;;;;;0.50;0.20;;;;;;;18.83;89.57;99190.59;4995337;28;20835;-53
2023/07/24 04:01:23;;;;;;;0.50;0.20;;;;;;;18.64;90.30;99189.38;4986893;28;21014;-53
2023/07/24 04:03:50;;;;;;;0.50;0.20;;;;;;;18.54;90.99;99187.50;4982767;28;21005;-53
2023/07/24 04:06:17;;;;;;;0.50;0.20;;;;;;;18.55;91.28;99190.06;4995769;28;20825;-52
2023/07/24 04:08:43;;;;;;;0.50;0.20;;;;;;;18.69;90.67;99180.06;4983039;28;20873;-53
2023/07/24 04:11:10;;;;;;;0.50;0.20;;;;;;;18.65;90.38;99184.84;4995505;28;20986;-53
2023/07/24 04:13:36;;;;;;;0.50;0.30;;;;;;;18.63;91.16;99186.75;4995411;28;20556;-52
2023/07/24 04:16:02;;;;;;;0.50;0.20;;;;;;;18.69;90.36;99205.16;4995835;28;20883;-53
2023/07/24 04:18:29;;;;;;;0.50;0.20;;;;;;;18.80;90.08;99220.47;4995696;28;20449;-53
2023/07/24 04:20:56;;;;;;;0.50;0.20;;;;;;;18.76;90.27;99227.91;4995405;28;20596;-53
2023/07/24 04:23:22;;;;;;;4.50;2.10;;;;;;;18.66;90.28;99213.47;4995477;28;20935;-53
2023/07/24 04:25:50;;;;;;;0.50;0.20;;;;;;;18.68;90.80;99206.13;4995325;28;20496;-52
2023/07/24 04:28:16;;;;;;;0.50;0.20;;;;;;;18.84;90.11;99220.09;4995311;28;21014;-53
2023/07/24 04:30:43;;;;;;;0.50;0.20;;;;;;;18.99;89.38;99215.31;4988920;28;20458;-52
2023/07/24 04:33:09;;;;;;;0.50;0.20;;;;;;;18.72;90.59;99229.13;4984304;28;20549;-53
2023/07/24 04:35:36;;;;;;;0.50;0.20;;;;;;;18.83;90.68;99236.38;4989951;28;20545;-52
2023/07/24 04:38:02;;;;;;;0.50;0.20;;;;;;;18.94;90.12;99239.94;4995570;28;20970;-53
2023/07/24 04:40:29;;;;;;;0.50;0.20;;;;;;;18.99;90.35;99236.00;4995040;28;20454;-53
2023/07/24 04:42:55;;;;;;;0.50;0.20;;;;;;;18.94;90.26;99229.16;4994797;28;20596;-53
2023/07/24 04:45:22;;;;;;;0.50;0.20;;;;;;;19.08;90.24;99219.97;4994458;28;20950;-52
2023/07/24 04:47:49;;;;;;;0.50;0.30;;;;;;;19.48;88.31;99227.50;4995019;28;20461;-53
2023/07/24 04:50:16;;;;;;;0.80;0.80;;;;;;;19.60;87.75;99231.03;4995055;28;20464;-53
2023/07/24 04:52:42;;;;;;;0.50;0.20;;;;;;;19.52;87.76;99237.03;4995019;28;20556;-53
2023/07/24 04:55:08;;;;;;;0.50;0.20;;;;;;;19.50;88.20;99244.41;5006407;28;20448;-53
2023/07/24 04:57:35;;;;;;;0.50;0.20;;;;;;;19.50;88.33;99241.69;4983595;28;20580;-52
2023/07/24 05:00:01;;;;;;;0.50;0.20;;;;;;;19.56;88.28;99252.00;4993107;28;20539;-53
2023/07/24 05:02:28;;;;;;;0.50;0.20;;;;;;;19.78;87.59;99243.00;4979576;28;20585;-53
2023/07/24 05:04:54;;;;;;;0.50;0.20;;;;;;;20.06;85.30;99249.63;4990164;28;20453;-53
2023/07/24 05:07:21;;;;;;;0.50;0.20;;;;;;;19.71;87.09;99239.94;4994606;28;20951;-53
2023/07/24 05:09:47;;;;;;;0.50;0.20;;;;;;;19.83;86.80;99238.91;4994934;28;21021;-53
2023/07/24 05:12:14;;;;;;;0.50;0.20;;;;;;;19.74;87.06;99230.75;4994924;28;20556;-52
2023/07/24 05:14:40;;;;;;;0.50;0.20;;;;;;;19.70;87.32;99223.88;4994712;28;20869;-53
2023/07/24 05:17:07;;;;;;;0.50;0.20;;;;;;;19.77;87.86;99223.25;4994839;28;20460;-52
2023/07/24 05:19:33;;;;;;;0.50;0.20;;;;;;;19.87;88.03;99227.88;4994525;28;20450;-52
2023/07/24 05:21:59;;;;;;;0.50;0.20;;;;;;;19.81;88.49;99232.81;4994447;28;21017;-53
2023/07/24 05:24:26;;;;;;;0.50;0.20;;;;;;;19.78;88.75;99234.91;4994268;28;20939;-52
2023/07/24 05:26:52;;;;;;;0.50;0.20;;;;;;;19.76;88.45;99235.03;4994581;28;20544;-52
2023/07/24 05:29:19;;;;;;;0.50;0.20;;;;;;;19.76;88.53;99228.78;4994347;28;20544;-52
2023/07/24 05:31:45;;;;;;;0.50;0.20;;;;;;;19.99;88.06;99229.53;4984865;28;20510;-52
2023/07/24 05:34:12;;;;;;;0.50;0.20;;;;;;;20.23;86.09;99234.69;4990462;28;20464;-52
2023/07/24 05:36:40;;;;;;;0.50;0.20;;;;;;;20.06;86.64;99223.50;4994209;28;20726;-53
2023/07/24 05:39:07;;;;;;;0.47;0.20;;;;;;;19.91;87.72;99219.41;4994226;28;20545;-52
2023/07/24 05:41:33;;;;;;;0.50;0.20;;;;;;;19.94;87.33;99218.28;4993653;28;20853;-53
2023/07/24 05:44:00;;;;;;;0.50;0.20;;;;;;;19.91;87.63;99219.41;4994228;28;20989;-52
2023/07/24 05:46:26;;;;;;;0.40;0.20;;;;;;;19.86;86.76;99215.38;4994141;28;20452;-53
2023/07/24 05:48:53;;;;;;;0.50;0.20;;;;;;;20.05;86.04;99218.25;4993963;28;20460;-53
2023/07/24 05:51:20;;;;;;;0.40;0.20;;;;;;;20.17;85.82;99221.75;4976622;28;20469;-52
2023/07/24 05:53:46;;;;;;;0.50;0.20;;;;;;;20.22;85.38;99228.44;4997649;28;20544;-52
2023/07/24 05:56:13;;;;;;;0.47;0.20;;;;;;;20.21;86.35;99226.75;4982481;28;20605;-53
2023/07/24 05:58:39;;;;;;;0.50;0.20;;;;;;;20.16;86.23;99228.97;4990990;28;20544;-52
2023/07/24 06:01:09;;;;;;;0.40;0.20;;;;;;;20.29;86.30;99228.78;4984762;28;20934;-52
2023/07/24 06:03:36;;;;;;;0.50;0.20;;;;;;;20.48;85.90;99230.78;4980664;28;20477;-52
2023/07/24 06:06:03;;;;;;;0.40;0.20;;;;;;;20.48;85.51;99228.94;4993428;28;20453;-52
2023/07/24 06:08:29;;;;;;;0.50;0.30;;;;;;;20.52;84.88;99222.28;4993609;28;20541;-52
2023/07/24 06:10:56;;;;;;;0.50;0.20;;;;;;;20.46;84.75;99221.97;4993291;28;20845;-52
2023/07/24 06:13:22;;;;;;;0.50;0.20;;;;;;;20.59;84.93;99209.97;4993212;28;20874;-52
2023/07/24 06:15:50;;;;;;;0.50;0.20;;;;;;;20.57;84.09;99208.41;4993287;28;20548;-53
2023/07/24 06:18:16;;;;;;;0.50;0.20;;;;;;;20.55;83.66;99197.69;4993150;28;20453;-53
2023/07/24 06:20:43;;;;;;;0.40;0.20;;;;;;;20.56;84.24;99203.97;4993084;28;20937;-53
2023/07/24 06:23:09;;;;;;;0.50;0.20;;;;;;;20.81;83.50;99208.91;4993298;28;20494;-53
2023/07/24 06:25:36;;;;;;;0.47;0.20;;;;;;;20.97;82.29;99201.19;4993072;28;20545;-52
2023/07/24 06:28:02;;;;;;;0.50;0.20;;;;;;;21.15;81.67;99205.94;4993120;28;20508;-52
2023/07/24 06:30:29;;;;;;;0.50;0.20;;;;;;;21.33;79.99;99198.03;4993131;28;20486;-52
2023/07/24 06:32:55;;;;;;;0.50;0.20;;;;;;;21.34;81.28;99207.88;4979868;28;20520;-52
2023/07/24 06:35:22;;;;;;;0.50;0.20;;;;;;;21.45;79.78;99215.84;4993042;28;20449;-53
2023/07/24 06:37:48;;;;;;;0.50;0.20;;;;;;;21.49;80.56;99207.31;4992933;28;20963;-53
2023/07/24 06:40:15;;;;;;;0.50;0.20;;;;;;;21.64;79.50;99201.50;4993427;28;20488;-53
2023/07/24 06:42:41;;;;;;;0.50;0.30;;;;;;;21.79;79.54;99206.38;4992628;28;20544;-53
2023/07/24 06:45:08;;;;;;;0.50;0.30;;;;;;;21.78;78.66;99211.91;4993054;28;20481;-53
2023/07/24 06:47:34;;;;;;;0.50;0.20;;;;;;;22.37;77.10;99217.19;4992767;28;20962;-53
2023/07/24 06:50:02;;;;;;;0.50;0.20;;;;;;;22.20;77.14;99223.31;4992815;28;21026;-53
2023/07/24 06:52:28;;;;;;;0.50;0.20;;;;;;;22.36;76.60;99220.06;4973498;28;20475;-53
2023/07/24 06:54:55;;;;;;;0.50;0.50;;;;;;;22.44;76.44;99222.88;4999118;28;20444;-53
2023/07/24 06:57:21;;;;;;;0.50;0.30;;;;;;;22.45;75.93;99225.44;4979768;28;20477;-53
2023/07/24 06:59:48;;;;;;;0.50;0.20;;;;;;;22.13;76.57;99216.78;4992752;28;20457;-53
2023/07/24 07:02:14;;;;;;;0.50;0.30;;;;;;;22.18;77.19;99226.19;4977740;28;20938;-53
2023/07/24 07:04:41;;;;;;;0.50;0.20;;;;;;;22.44;76.69;99231.00;4985823;28;21032;-53
2023/07/24 07:07:08;;;;;;;0.50;0.20;;;;;;;22.41;76.79;99236.72;4992635;28;20871;-53
2023/07/24 07:09:34;;;;;;;0.50;0.20;;;;;;;22.37;77.12;99233.44;4996719;28;20508;-52
2023/07/24 07:12:01;;;;;;;0.50;0.20;;;;;;;22.28;77.06;99225.31;4996780;28;20469;-53
2023/07/24 07:14:27;;;;;;;0.50;0.20;;;;;;;22.29;77.19;99227.03;4996842;28;20453;-53
2023/07/24 07:16:53;;;;;;;0.50;0.20;;;;;;;22.21;76.69;99221.50;4996639;28;20540;-52
2023/07/24 07:19:20;;;;;;;0.50;0.30;;;;;;;22.16;77.61;99211.94;4996846;28;20540;-53
2023/07/24 07:21:46;;;;;;;0.50;0.20;;;;;;;22.15;78.20;99207.53;4996677;28;20580;-53
2023/07/24 07:24:13;;;;;;;0.50;0.20;;;;;;;22.12;77.54;99190.72;4996473;28;20536;-53
2023/07/24 07:26:39;;;;;;;0.50;0.20;;;;;;;22.15;77.17;99185.88;4996682;28;20540;-53
2023/07/24 07:29:06;;;;;;;0.50;0.20;;;;;;;22.23;76.70;99184.31;4996262;28;20557;-53
2023/07/24 07:31:32;;;;;;;0.50;0.20;;;;;;;22.36;76.68;99176.72;4989311;28;20565;-53
2023/07/24 07:33:59;;;;;;;0.50;0.20;;;;;;;22.25;76.96;99183.16;4990321;28;20456;-53
2023/07/24 07:36:25;;;;;;;0.50;0.20;;;;;;;22.16;77.00;99193.00;4996355;28;20869;-53
2023/07/24 07:38:52;;;;;;;0.50;0.30;;;;;;;22.30;75.72;99188.97;4996232;28;20956;-53
2023/07/24 07:41:18;;;;;;;0.50;0.20;;;;;;;22.31;76.19;99187.13;4996116;28;20513;-53
2023/07/24 07:43:45;;;;;;;0.50;0.20;;;;;;;22.30;76.14;99188.97;4995934;28;20454;-52
2023/07/24 07:46:11;;;;;;;0.50;0.20;;;;;;;22.44;75.90;99191.22;4996199;28;20899;-53
2023/07/24 07:48:38;;;;;;;0.60;0.57;;;;;;;22.48;75.40;99189.09;4996281;28;20477;-53
2023/07/24 07:51:04;;;;;;;0.50;0.20;;;;;;;22.46;75.45;99188.38;4995979;28;20469;-53
2023/07/24 07:53:31;;;;;;;0.50;0.30;;;;;;;22.49;75.69;99182.69;4997385;28;20496;-53
2023/07/24 07:55:59;;;;;;;0.50;0.20;;;;;;;22.35;75.88;99180.44;4999475;28;20458;-53
2023/07/24 07:58:26;;;;;;;0.50;0.20;;;;;;;22.66;76.82;99187.31;4991075;28;20457;-53
2023/07/24 08:00:53;;;;;;;0.50;0.20;;;;;;;22.77;77.77;99184.44;4987311;28;20572;-52
2023/07/24 08:03:19;;;;;;;0.50;0.20;;;;;;;23.14;77.64;99182.72;4982532;28;20490;-53
2023/07/24 08:05:46;;;;;;;0.50;0.20;;;;;;;23.34;75.51;99187.03;4995855;28;20833;-53
2023/07/24 08:08:13;;;;;;;0.50;0.20;;;;;;;23.48;74.73;99167.53;4995765;28;20481;-53
2023/07/24 08:10:40;;;;;;;0.50;0.20;;;;;;;23.54;73.45;99160.63;4995637;28;20929;-53
2023/07/24 08:13:07;;;;;;;0.50;0.30;;;;;;;23.68;72.70;99149.25;4995207;28;20934;-53
2023/07/24 08:15:35;;;;;;;0.50;0.23;;;;;;;23.70;72.20;99149.94;4995863;28;20828;-53
2023/07/24 08:18:03;;;;;;;0.50;0.20;;;;;;;23.64;72.43;99164.16;4995682;28;20541;-52
2023/07/24 08:20:30;;;;;;;0.50;0.30;;;;;;;23.98;71.54;99153.41;4994869;28;20431;-53
2023/07/24 08:22:57;;;;;;;0.50;0.20;;;;;;;24.14;70.82;99159.00;4995402;28;20532;-53
2023/07/24 08:25:23;;;;;;;0.50;0.20;;;;;;;24.49;69.14;99151.78;4995467;28;20540;-53
2023/07/24 08:27:50;;;;;;;0.50;0.20;;;;;;;24.49;69.20;99144.50;4995247;28;20545;-53
2023/07/24 08:30:31;;;;;;;0.50;0.20;;;;;;;24.77;68.04;99152.47;4995546;28;20453;-53
2023/07/24 08:32:58;;;;;;;0.50;0.20;;;;;;;24.95;67.24;99153.25;4982268;28;20460;-53
2023/07/24 08:35:25;;;;;;;0.50;0.20;;;;;;;24.76;66.99;99148.88;4995495;28;20806;-53
2023/07/24 08:37:52;;;;;;;0.50;0.30;;;;;;;24.73;66.89;99140.22;4994883;28;20455;-53
2023/07/24 08:40:18;;;;;;;0.50;0.27;;;;;;;24.76;67.32;99139.88;4995046;28;20890;-54
2023/07/24 08:42:49;;;;;;;0.50;0.30;;;;;;;24.80;67.01;99133.09;4995101;28;20532;-53
2023/07/24 08:45:16;;;;;;;0.50;0.30;;;;;;;24.77;67.28;99141.59;4995269;28;20428;-52
2023/07/24 08:47:44;;;;;;;0.50;0.23;;;;;;;25.10;66.20;99142.63;4988648;28;20451;-53
2023/07/24 08:50:12;;;;;;;0.50;0.20;;;;;;;25.22;65.36;99130.41;4988628;28;20454;-53
2023/07/24 08:52:39;;;;;;;0.50;0.20;;;;;;;25.29;65.23;99127.88;4994781;28;20453;-53
2023/07/24 08:55:06;;;;;;;0.50;0.30;;;;;;;25.15;64.57;99123.94;5006798;28;20445;-53
2023/07/24 08:57:33;;;;;;;0.50;0.27;;;;;;;24.87;65.85;99117.84;4983542;28;20817;-53
2023/07/24 09:00:04;;;;;;;0.50;0.30;;;;;;;24.68;65.65;99124.41;4993285;28;20450;-53
2023/07/24 09:02:34;;;;;;;0.50;0.27;;;;;;;24.78;66.06;99118.81;4979378;28;21085;-53
2023/07/24 09:05:03;;;;;;;0.50;0.20;;;;;;;24.66;66.56;99122.84;4991127;28;20564;-53
2023/07/24 09:07:31;;;;;;;0.50;0.20;;;;;;;24.83;66.42;99108.31;4994533;28;20435;-53
2023/07/24 09:09:57;;;;;;;0.50;0.20;;;;;;;24.88;66.77;99110.53;4994581;28;20966;-53
2023/07/24 09:12:24;;;;;;;0.50;0.20;;;;;;;24.80;66.90;99109.47;4994495;28;20994;-53
2023/07/24 09:15:04;;;;;;;0.50;0.20;;;;;;;24.98;66.32;99097.66;4994481;28;20480;-53
2023/07/24 09:17:32;;;;;;;0.50;0.30;;;;;;;24.71;66.71;99094.16;4994371;28;20954;-53
2023/07/24 09:19:58;;;;;;;0.50;0.30;;;;;;;24.73;67.48;99088.56;4994387;28;20424;-53
2023/07/24 09:22:26;;;;;;;0.50;0.20;;;;;;;24.88;66.68;99083.34;4994498;28;20534;-53
2023/07/24 09:24:55;;;;;;;0.50;0.20;;;;;;;24.73;66.66;99083.13;4994105;28;20943;-53
2023/07/24 09:27:28;;;;;;;0.50;0.20;;;;;;;24.99;66.12;99091.22;4994412;28;20424;-53
2023/07/24 09:29:58;;;;;;;8.13;4.10;;;;;;;25.02;65.41;99077.31;4981065;28;20960;-53
2023/07/24 09:32:27;;;;;;;0.50;0.20;;;;;;;25.31;63.57;99074.13;4981224;28;20537;-53
2023/07/24 09:34:54;;;;;;;0.50;0.20;;;;;;;25.43;62.63;99064.63;4994335;28;20459;-53
2023/07/24 09:37:33;;;;;;;0.50;0.20;;;;;;;25.66;61.33;99073.00;4994127;28;20457;-53
2023/07/24 09:40:04;;;;;;;0.50;0.30;;;;;;;25.77;60.91;99066.38;4994253;28;20453;-54
2023/07/24 09:42:32;;;;;;;0.50;0.30;;;;;;;25.86;60.08;99059.91;4993433;28;21259;-53
2023/07/24 09:44:59;;;;;;;0.50;0.20;;;;;;;26.01;57.46;99066.34;4993759;28;20895;-53
2023/07/24 09:47:25;;;;;;;0.50;0.30;;;;;;;26.37;57.60;99061.38;4994016;28;20528;-53
2023/07/24 09:50:12;;;;;;;0.50;0.30;;;;;;;26.09;55.70;99079.97;4994084;28;20454;-53
2023/07/24 09:52:41;;;;;;;0.50;0.30;;;;;;;25.98;54.89;99086.63;4993768;28;20528;-53
2023/07/24 09:55:12;;;;;;;0.50;0.27;;;;;;;26.10;52.99;99100.75;5005131;28;20546;-53
2023/07/24 09:57:40;;;;;;;0.50;0.20;;;;;;;25.81;54.69;99090.38;4983150;28;20453;-53
2023/07/24 10:00:07;;;;;;;0.50;0.30;;;;;;;26.07;54.99;99095.63;4991287;28;20519;-53
2023/07/24 10:02:35;;;;;;;0.50;0.30;;;;;;;25.95;54.24;99099.72;4977933;28;20895;-53
2023/07/24 10:05:01;;;;;;;0.50;0.30;;;;;;;25.85;53.86;99101.78;4990137;28;20454;-53
2023/07/24 10:07:28;;;;;;;0.50;0.20;;;;;;;25.98;54.15;99111.13;4993616;28;20536;-53
2023/07/24 10:09:56;;;;;;;0.50;0.30;;;;;;;25.73;55.45;99101.25;4993375;28;20453;-53
2023/07/24 10:12:23;;;;;;;0.50;0.30;;;;;;;25.95;56.60;99107.91;4993542;28;20502;-53
2023/07/24 10:14:50;;;;;;;0.50;0.30;;;;;;;25.93;57.84;99118.13;4993359;28;20491;-53
2023/07/24 10:17:34;;;;;;;0.50;0.30;;;;;;;26.16;58.94;99113.66;4993398;28;20514;-53
2023/07/24 10:20:11;;;;;;;0.50;0.40;;;;;;;26.18;60.21;99122.53;4993156;28;20449;-53
2023/07/24 10:22:42;;;;;;;0.50;0.20;;;;;;;25.74;61.75;99122.00;4993344;28;20497;-53
2023/07/24 10:25:10;;;;;;;0.50;0.30;;;;;;;26.17;60.46;99111.78;4993558;28;20504;-53
2023/07/24 10:27:46;;;;;;;0.50;0.23;;;;;;;25.92;60.32;99108.25;4993478;28;20457;-53
2023/07/24 10:30:12;;;;;;;0.50;0.20;;;;;;;26.11;60.08;99112.47;4992675;28;20942;-53
2023/07/24 10:33:12;;;;;;;0.50;0.30;;;;;;;25.98;59.19;99118.44;4988580;28;20806;-53
2023/07/24 10:35:43;;;;;;;0.50;0.20;;;;;;;25.83;59.22;99120.16;4980148;28;20457;-53
2023/07/24 10:38:10;;;;;;;0.60;0.50;;;;;;;25.73;58.38;99116.75;4993174;28;20477;-53
2023/07/24 10:40:40;;;;;;;0.50;0.30;;;;;;;25.98;59.07;99111.13;4992894;28;20457;-53
2023/07/24 10:43:09;;;;;;;2.57;2.47;;;;;;;25.86;59.74;99106.19;4992348;28;20532;-53
2023/07/24 10:45:52;;;;;;;0.50;0.27;;;;;;;26.32;58.33;99107.34;4992952;28;20432;-53
2023/07/24 10:48:20;;;;;;;0.50;0.30;;;;;;;26.29;57.76;99092.19;4993017;28;20955;-53
2023/07/24 10:50:49;;;;;;;0.50;0.30;;;;;;;26.35;57.27;99104.28;4992885;28;20502;-53
2023/07/24 10:53:21;;;;;;;0.50;0.30;;;;;;;26.28;57.61;99103.25;4992795;28;20516;-53
2023/07/24 10:55:48;;;;;;;0.57;0.40;;;;;;;26.31;58.08;99094.72;4973527;28;20452;-53
2023/07/24 10:58:14;;;;;;;0.50;0.30;;;;;;;26.20;59.56;99087.78;4986437;28;20453;-53
2023/07/24 11:00:44;;;;;;;0.50;0.20;;;;;;;26.07;59.73;99084.75;4986267;28;20902;-53
2023/07/24 11:03:12;;;;;;;0.50;0.20;;;;;;;26.27;59.67;99082.47;4972142;28;20976;-54
2023/07/24 11:05:42;;;;;;;0.50;0.30;;;;;;;26.41;59.24;99089.13;4980797;28;20453;-53
2023/07/24 11:08:15;;;;;;;0.50;0.20;;;;;;;26.29;58.98;99086.72;4992710;28;20459;-53
2023/07/24 11:10:50;;;;;;;0.50;0.20;;;;;;;26.24;58.94;99080.09;4992970;28;20471;-53
2023/07/24 11:13:19;;;;;;;0.50;0.30;;;;;;;26.43;58.95;99076.16;4992748;28;20871;-53
2023/07/24 11:15:46;;;;;;;0.50;0.30;;;;;;;26.42;59.69;99074.47;4993024;28;20461;-53
2023/07/24 11:18:13;;;;;;;0.50;0.20;;;;;;;26.73;58.03;99086.31;4993009;28;20432;-53
2023/07/24 11:20:47;;;;;;;0.50;0.20;;;;;;;26.46;58.61;99068.50;4992574;28;20456;-53
2023/07/24 11:23:14;;;;;;;0.50;0.30;;;;;;;26.52;59.00;99061.50;4992596;28;20488;-53
2023/07/24 11:25:41;;;;;;;0.50;0.20;;;;;;;26.55;58.45;99061.13;4992802;28;20532;-53
2023/07/24 11:28:10;;;;;;;0.50;0.30;;;;;;;26.56;58.03;99065.56;4992503;28;20974;-53
2023/07/24 11:30:37;;;;;;;0.50;0.20;;;;;;;26.31;58.49;99069.34;4992154;28;20481;-53
2023/07/24 11:33:05;;;;;;;0.50;0.20;;;;;;;26.57;58.48;99062.66;4979904;28;20451;-53
2023/07/24 11:35:33;;;;;;;0.50;0.30;;;;;;;26.68;57.78;99055.13;4992475;28;20454;-54